sensor_id;sensor_type;location;lat;lon;timestamp;pressure;altitude;pressure_sealevel;temperature;humidity
83896;BME280;74045;42.812;74.638;2024-02-16T00:01:59;90560.06;;;6.66;68.67
83896;BME280;74045;42.812;74.638;2024-02-16T00:04:24;90568.25;;;6.71;68.31
83896;BME280;74045;42.812;74.638;2024-02-16T00:06:50;90556.34;;;6.63;68.67
83896;BME280;74045;42.812;74.638;2024-02-16T00:09:16;90522.44;;;6.42;68.61
83896;BME280;74045;42.812;74.638;2024-02-16T00:11:42;90563.38;;;6.73;68.81
83896;BME280;74045;42.812;74.638;2024-02-16T00:14:09;90559.69;;;6.67;68.51
83896;BME280;74045;42.812;74.638;2024-02-16T00:16:35;90573.81;;;6.81;68.16
83896;BME280;74045;42.812;74.638;2024-02-16T00:19:00;90593.91;;;6.94;68.13
83896;BME280;74045;42.812;74.638;2024-02-16T00:21:27;90531.09;;;6.39;68.26
83896;BME280;74045;42.812;74.638;2024-02-16T00:23:52;90614.88;;;6.98;68.05
83896;BME280;74045;42.812;74.638;2024-02-16T00:26:18;90450.53;;;5.91;68.30
83896;BME280;74045;42.812;74.638;2024-02-16T00:28:44;90619.72;;;7.03;68.21
83896;BME280;74045;42.812;74.638;2024-02-16T00:31:10;90595.13;;;6.86;67.85
83896;BME280;74045;42.812;74.638;2024-02-16T00:33:36;90622.00;;;7.01;67.66
83896;BME280;74045;42.812;74.638;2024-02-16T00:36:02;90623.56;;;6.91;68.23
83896;BME280;74045;42.812;74.638;2024-02-16T00:38:27;90634.47;;;6.90;68.05
83896;BME280;74045;42.812;74.638;2024-02-16T00:40:53;90638.72;;;6.77;68.95
83896;BME280;74045;42.812;74.638;2024-02-16T00:43:19;90598.56;;;6.35;69.13
83896;BME280;74045;42.812;74.638;2024-02-16T00:45:44;90659.53;;;6.49;70.25
83896;BME280;74045;42.812;74.638;2024-02-16T00:48:11;90647.31;;;6.28;70.74
83896;BME280;74045;42.812;74.638;2024-02-16T00:50:37;90672.88;;;6.17;70.61
83896;BME280;74045;42.812;74.638;2024-02-16T00:53:02;90670.66;;;6.12;71.10
83896;BME280;74045;42.812;74.638;2024-02-16T00:55:29;90663.25;;;5.89;71.14
83896;BME280;74045;42.812;74.638;2024-02-16T00:57:56;90672.63;;;5.90;71.42
83896;BME280;74045;42.812;74.638;2024-02-16T01:00:21;90665.56;;;5.80;70.93
83896;BME280;74045;42.812;74.638;2024-02-16T01:02:49;90671.66;;;5.55;72.43
83896;BME280;74045;42.812;74.638;2024-02-16T01:05:15;90679.94;;;5.39;73.80
83896;BME280;74045;42.812;74.638;2024-02-16T01:07:43;90684.44;;;5.35;73.57
83896;BME280;74045;42.812;74.638;2024-02-16T01:10:09;90691.22;;;5.08;74.25
83896;BME280;74045;42.812;74.638;2024-02-16T01:12:35;90709.94;;;5.03;74.89
83896;BME280;74045;42.812;74.638;2024-02-16T01:15:00;90715.94;;;4.75;75.81
83896;BME280;74045;42.812;74.638;2024-02-16T01:17:26;90742.84;;;4.57;77.09
83896;BME280;74045;42.812;74.638;2024-02-16T01:19:52;90665.41;;;3.85;77.62
83896;BME280;74045;42.812;74.638;2024-02-16T01:22:18;90749.53;;;4.33;77.63
83896;BME280;74045;42.812;74.638;2024-02-16T01:24:44;90736.00;;;3.99;79.34
83896;BME280;74045;42.812;74.638;2024-02-16T01:27:09;90749.38;;;3.83;79.46
83896;BME280;74045;42.812;74.638;2024-02-16T01:29:36;90757.53;;;3.71;80.47
83896;BME280;74045;42.812;74.638;2024-02-16T01:32:02;90760.50;;;3.66;80.46
83896;BME280;74045;42.812;74.638;2024-02-16T01:34:28;90742.41;;;3.28;82.07
83896;BME280;74045;42.812;74.638;2024-02-16T01:36:56;90701.03;;;2.72;83.96
83896;BME280;74045;42.812;74.638;2024-02-16T01:39:21;90783.31;;;3.13;84.47
83896;BME280;74045;42.812;74.638;2024-02-16T01:41:47;90675.09;;;2.38;82.88
83896;BME280;74045;42.812;74.638;2024-02-16T01:44:13;90794.84;;;3.05;84.94
83896;BME280;74045;42.812;74.638;2024-02-16T01:46:42;90796.19;;;2.88;85.12
83896;BME280;74045;42.812;74.638;2024-02-16T01:49:09;90734.66;;;2.36;84.62
83896;BME280;74045;42.812;74.638;2024-02-16T01:51:35;90807.22;;;2.71;85.02
83896;BME280;74045;42.812;74.638;2024-02-16T01:54:01;90790.97;;;2.44;84.98
83896;BME280;74045;42.812;74.638;2024-02-16T01:56:28;90828.31;;;2.55;85.99
83896;BME280;74045;42.812;74.638;2024-02-16T01:58:56;90832.75;;;2.51;85.96
83896;BME280;74045;42.812;74.638;2024-02-16T02:01:21;90814.50;;;2.14;87.23
83896;BME280;74045;42.812;74.638;2024-02-16T02:03:47;90822.00;;;2.19;87.66
83896;BME280;74045;42.812;74.638;2024-02-16T02:06:13;90788.44;;;1.80;87.48
83896;BME280;74045;42.812;74.638;2024-02-16T02:08:39;90841.28;;;2.14;88.20
83896;BME280;74045;42.812;74.638;2024-02-16T02:11:05;90845.72;;;2.10;88.82
83896;BME280;74045;42.812;74.638;2024-02-16T02:13:31;90747.06;;;1.41;88.95
83896;BME280;74045;42.812;74.638;2024-02-16T02:15:58;90813.06;;;1.86;88.95
83896;BME280;74045;42.812;74.638;2024-02-16T02:18:25;90820.53;;;1.88;89.37
83896;BME280;74045;42.812;74.638;2024-02-16T02:20:50;90823.50;;;1.90;89.19
83896;BME280;74045;42.812;74.638;2024-02-16T02:23:16;90820.13;;;1.86;89.76
83896;BME280;74045;42.812;74.638;2024-02-16T02:25:42;90840.78;;;1.71;89.45
83896;BME280;74045;42.812;74.638;2024-02-16T02:28:07;90854.66;;;1.52;90.26
83896;BME280;74045;42.812;74.638;2024-02-16T02:30:33;90827.59;;;1.30;90.49
83896;BME280;74045;42.812;74.638;2024-02-16T02:32:59;90860.16;;;1.47;90.45
83896;BME280;74045;42.812;74.638;2024-02-16T02:35:25;90854.34;;;1.31;90.26
83896;BME280;74045;42.812;74.638;2024-02-16T02:37:51;90825.72;;;1.04;90.18
83896;BME280;74045;42.812;74.638;2024-02-16T02:40:16;90813.53;;;0.85;89.66
83896;BME280;74045;42.812;74.638;2024-02-16T02:42:42;90897.56;;;1.36;90.50
83896;BME280;74045;42.812;74.638;2024-02-16T02:45:09;90888.91;;;1.31;89.74
83896;BME280;74045;42.812;74.638;2024-02-16T02:47:35;90921.31;;;1.11;88.29
83896;BME280;74045;42.812;74.638;2024-02-16T02:50:01;90928.41;;;0.68;87.00
83896;BME280;74045;42.812;74.638;2024-02-16T02:52:26;90925.66;;;0.22;88.34
83896;BME280;74045;42.812;74.638;2024-02-16T02:54:52;90920.16;;;-0.12;89.16
83896;BME280;74045;42.812;74.638;2024-02-16T02:57:18;90947.66;;;-0.11;89.71
83896;BME280;74045;42.812;74.638;2024-02-16T02:59:44;90944.22;;;-0.15;90.44
83896;BME280;74045;42.812;74.638;2024-02-16T03:02:10;90980.22;;;-0.13;89.19
83896;BME280;74045;42.812;74.638;2024-02-16T03:04:36;90853.38;;;-1.17;90.00
83896;BME280;74045;42.812;74.638;2024-02-16T03:07:02;90943.97;;;-0.61;89.91
83896;BME280;74045;42.812;74.638;2024-02-16T03:09:28;90986.47;;;-0.65;90.98
83896;BME280;74045;42.812;74.638;2024-02-16T03:11:54;90981.09;;;-0.88;91.50
83896;BME280;74045;42.812;74.638;2024-02-16T03:14:19;90994.41;;;-0.74;91.94
83896;BME280;74045;42.812;74.638;2024-02-16T03:16:45;90984.50;;;-0.84;91.91
83896;BME280;74045;42.812;74.638;2024-02-16T03:19:11;90996.41;;;-0.83;91.80
83896;BME280;74045;42.812;74.638;2024-02-16T03:21:37;91001.59;;;-0.83;91.38
83896;BME280;74045;42.812;74.638;2024-02-16T03:24:03;91026.66;;;-0.87;91.37
83896;BME280;74045;42.812;74.638;2024-02-16T03:26:31;91019.13;;;-0.93;91.48
83896;BME280;74045;42.812;74.638;2024-02-16T03:28:57;91031.25;;;-0.97;90.77
83896;BME280;74045;42.812;74.638;2024-02-16T03:31:24;90934.09;;;-1.75;89.91
83896;BME280;74045;42.812;74.638;2024-02-16T03:33:50;91044.84;;;-1.16;89.36
83896;BME280;74045;42.812;74.638;2024-02-16T03:36:17;91052.31;;;-1.26;90.33
83896;BME280;74045;42.812;74.638;2024-02-16T03:38:44;90976.31;;;-1.99;90.69
83896;BME280;74045;42.812;74.638;2024-02-16T03:41:14;91065.03;;;-1.49;90.10
83896;BME280;74045;42.812;74.638;2024-02-16T03:43:41;91092.78;;;-1.50;90.40
83896;BME280;74045;42.812;74.638;2024-02-16T03:46:07;91074.69;;;-1.62;89.77
83896;BME280;74045;42.812;74.638;2024-02-16T03:48:33;91089.13;;;-1.61;90.39
83896;BME280;74045;42.812;74.638;2024-02-16T03:50:59;91095.63;;;-1.67;89.61
83896;BME280;74045;42.812;74.638;2024-02-16T03:53:26;91105.31;;;-1.64;89.69
83896;BME280;74045;42.812;74.638;2024-02-16T03:55:51;91121.41;;;-1.71;90.59
83896;BME280;74045;42.812;74.638;2024-02-16T03:58:17;91127.13;;;-1.77;89.90
83896;BME280;74045;42.812;74.638;2024-02-16T04:00:43;91140.50;;;-1.75;89.40
83896;BME280;74045;42.812;74.638;2024-02-16T04:03:09;91137.47;;;-1.90;89.93
83896;BME280;74045;42.812;74.638;2024-02-16T04:05:38;91162.94;;;-1.92;90.01
83896;BME280;74045;42.812;74.638;2024-02-16T04:08:05;91155.34;;;-2.21;88.33
83896;BME280;74045;42.812;74.638;2024-02-16T04:10:32;91192.25;;;-2.45;88.34
83896;BME280;74045;42.812;74.638;2024-02-16T04:12:58;91205.94;;;-2.45;88.18
83896;BME280;74045;42.812;74.638;2024-02-16T04:15:24;91130.75;;;-3.27;87.84
83896;BME280;74045;42.812;74.638;2024-02-16T04:17:50;91215.50;;;-3.00;88.54
83896;BME280;74045;42.812;74.638;2024-02-16T04:20:16;91200.31;;;-3.01;89.96
83896;BME280;74045;42.812;74.638;2024-02-16T04:22:43;91210.22;;;-3.03;89.77
83896;BME280;74045;42.812;74.638;2024-02-16T04:25:09;91086.06;;;-3.91;89.30
83896;BME280;74045;42.812;74.638;2024-02-16T04:27:35;91177.31;;;-3.36;89.12
83896;BME280;74045;42.812;74.638;2024-02-16T04:30:02;91200.75;;;-3.20;89.33
83896;BME280;74045;42.812;74.638;2024-02-16T04:32:28;91175.66;;;-3.41;89.81
83896;BME280;74045;42.812;74.638;2024-02-16T04:34:54;91222.16;;;-3.20;89.83
83896;BME280;74045;42.812;74.638;2024-02-16T04:37:22;91220.59;;;-3.33;89.39
83896;BME280;74045;42.812;74.638;2024-02-16T04:39:49;91223.03;;;-3.37;89.72
83896;BME280;74045;42.812;74.638;2024-02-16T04:42:14;91230.03;;;-3.37;90.05
83896;BME280;74045;42.812;74.638;2024-02-16T04:44:41;91220.06;;;-3.47;89.34
83896;BME280;74045;42.812;74.638;2024-02-16T04:47:08;91245.63;;;-3.25;89.46
83896;BME280;74045;42.812;74.638;2024-02-16T04:49:35;91242.06;;;-3.20;90.07
83896;BME280;74045;42.812;74.638;2024-02-16T04:52:00;91253.13;;;-3.11;89.87
83896;BME280;74045;42.812;74.638;2024-02-16T04:54:26;91271.78;;;-3.05;89.47
83896;BME280;74045;42.812;74.638;2024-02-16T04:56:53;91297.41;;;-3.21;87.26
83896;BME280;74045;42.812;74.638;2024-02-16T04:59:19;91271.50;;;-3.42;87.14
83896;BME280;74045;42.812;74.638;2024-02-16T05:01:45;91290.31;;;-3.71;87.54
83896;BME280;74045;42.812;74.638;2024-02-16T05:04:11;91293.56;;;-3.92;87.81
83896;BME280;74045;42.812;74.638;2024-02-16T05:06:44;91302.34;;;-3.84;88.66
83896;BME280;74045;42.812;74.638;2024-02-16T05:09:13;91287.03;;;-3.89;89.54
83896;BME280;74045;42.812;74.638;2024-02-16T05:11:43;91323.75;;;-3.84;88.06
83896;BME280;74045;42.812;74.638;2024-02-16T05:14:10;91311.47;;;-3.95;87.43
83896;BME280;74045;42.812;74.638;2024-02-16T05:16:37;91323.16;;;-4.07;87.82
83896;BME280;74045;42.812;74.638;2024-02-16T05:19:03;91309.97;;;-4.05;87.73
83896;BME280;74045;42.812;74.638;2024-02-16T05:21:28;91336.38;;;-3.99;88.57
83896;BME280;74045;42.812;74.638;2024-02-16T05:23:54;91353.38;;;-3.98;87.98
83896;BME280;74045;42.812;74.638;2024-02-16T05:26:20;91348.06;;;-4.02;88.00
83896;BME280;74045;42.812;74.638;2024-02-16T05:28:46;91348.19;;;-3.98;88.72
83896;BME280;74045;42.812;74.638;2024-02-16T05:31:17;91350.78;;;-3.90;88.87
83896;BME280;74045;42.812;74.638;2024-02-16T05:33:45;91368.69;;;-3.85;89.25
83896;BME280;74045;42.812;74.638;2024-02-16T05:36:11;91356.06;;;-3.69;89.10
83896;BME280;74045;42.812;74.638;2024-02-16T05:38:37;91369.22;;;-3.53;89.26
83896;BME280;74045;42.812;74.638;2024-02-16T05:41:10;91364.53;;;-3.60;86.86
83896;BME280;74045;42.812;74.638;2024-02-16T05:43:37;91380.50;;;-3.57;87.49
83896;BME280;74045;42.812;74.638;2024-02-16T05:46:04;91378.34;;;-3.64;86.98
83896;BME280;74045;42.812;74.638;2024-02-16T05:48:34;91357.00;;;-3.82;87.26
83896;BME280;74045;42.812;74.638;2024-02-16T05:51:03;91375.97;;;-3.87;87.55
83896;BME280;74045;42.812;74.638;2024-02-16T05:53:31;91403.44;;;-3.73;87.45
83896;BME280;74045;42.812;74.638;2024-02-16T05:55:57;91408.47;;;-3.86;86.83
83896;BME280;74045;42.812;74.638;2024-02-16T05:58:24;91327.16;;;-4.44;86.91
83896;BME280;74045;42.812;74.638;2024-02-16T06:00:50;91420.31;;;-4.02;86.72
83896;BME280;74045;42.812;74.638;2024-02-16T06:03:16;91422.88;;;-4.11;86.61
83896;BME280;74045;42.812;74.638;2024-02-16T06:05:42;91430.75;;;-4.33;86.04
83896;BME280;74045;42.812;74.638;2024-02-16T06:08:10;91416.44;;;-4.57;87.11
83896;BME280;74045;42.812;74.638;2024-02-16T06:10:36;91451.50;;;-4.47;85.99
83896;BME280;74045;42.812;74.638;2024-02-16T06:13:02;91447.13;;;-4.46;86.26
83896;BME280;74045;42.812;74.638;2024-02-16T06:15:28;91455.91;;;-4.47;86.85
83896;BME280;74045;42.812;74.638;2024-02-16T06:17:53;91422.94;;;-4.68;87.33
83896;BME280;74045;42.812;74.638;2024-02-16T06:20:19;91475.34;;;-4.41;86.94
83896;BME280;74045;42.812;74.638;2024-02-16T06:22:45;91493.38;;;-4.41;87.57
83896;BME280;74045;42.812;74.638;2024-02-16T06:25:11;91497.91;;;-4.56;85.93
83896;BME280;74045;42.812;74.638;2024-02-16T06:27:36;91478.25;;;-4.74;85.90
83896;BME280;74045;42.812;74.638;2024-02-16T06:30:08;91496.59;;;-4.84;85.54
83896;BME280;74045;42.812;74.638;2024-02-16T06:32:38;91406.88;;;-5.53;86.91
83896;BME280;74045;42.812;74.638;2024-02-16T06:35:04;91429.84;;;-5.34;87.07
83896;BME280;74045;42.812;74.638;2024-02-16T06:37:30;91519.34;;;-4.78;87.07
83896;BME280;74045;42.812;74.638;2024-02-16T06:39:57;91522.84;;;-4.74;86.79
83896;BME280;74045;42.812;74.638;2024-02-16T06:42:23;91430.88;;;-5.35;86.61
83896;BME280;74045;42.812;74.638;2024-02-16T06:44:48;91524.53;;;-4.69;87.19
83896;BME280;74045;42.812;74.638;2024-02-16T06:47:14;91531.50;;;-4.69;86.18
83896;BME280;74045;42.812;74.638;2024-02-16T06:49:40;91526.19;;;-4.73;85.41
83896;BME280;74045;42.812;74.638;2024-02-16T06:52:06;91529.94;;;-4.79;85.47
83896;BME280;74045;42.812;74.638;2024-02-16T06:54:32;91526.34;;;-4.69;85.82
83896;BME280;74045;42.812;74.638;2024-02-16T06:56:58;91547.25;;;-4.71;85.56
83896;BME280;74045;42.812;74.638;2024-02-16T06:59:24;91542.72;;;-4.97;84.47
83896;BME280;74045;42.812;74.638;2024-02-16T07:01:50;91516.72;;;-5.18;85.75
83896;BME280;74045;42.812;74.638;2024-02-16T07:04:16;91563.94;;;-5.00;84.91
83896;BME280;74045;42.812;74.638;2024-02-16T07:06:42;91577.19;;;-5.15;84.82
83896;BME280;74045;42.812;74.638;2024-02-16T07:09:08;91579.81;;;-5.29;85.37
83896;BME280;74045;42.812;74.638;2024-02-16T07:11:33;91567.91;;;-5.38;86.22
83896;BME280;74045;42.812;74.638;2024-02-16T07:14:00;91579.13;;;-5.21;87.08
83896;BME280;74045;42.812;74.638;2024-02-16T07:16:28;91569.91;;;-5.13;86.26
83896;BME280;74045;42.812;74.638;2024-02-16T07:18:53;91583.16;;;-5.06;85.83
83896;BME280;74045;42.812;74.638;2024-02-16T07:21:19;91370.84;;;-6.52;85.52
83896;BME280;74045;42.812;74.638;2024-02-16T07:23:47;91575.47;;;-5.20;85.02
83896;BME280;74045;42.812;74.638;2024-02-16T07:26:13;91578.22;;;-5.38;84.77
83896;BME280;74045;42.812;74.638;2024-02-16T07:28:39;91586.88;;;-5.57;85.32
83896;BME280;74045;42.812;74.638;2024-02-16T07:31:05;91536.16;;;-5.93;85.17
83896;BME280;74045;42.812;74.638;2024-02-16T07:33:31;91578.50;;;-5.63;85.01
83896;BME280;74045;42.812;74.638;2024-02-16T07:35:57;91575.84;;;-5.71;85.39
83896;BME280;74045;42.812;74.638;2024-02-16T07:38:22;91596.91;;;-5.47;84.45
83896;BME280;74045;42.812;74.638;2024-02-16T07:40:48;91604.56;;;-5.55;84.94
83896;BME280;74045;42.812;74.638;2024-02-16T07:43:16;91596.69;;;-5.59;85.00
83896;BME280;74045;42.812;74.638;2024-02-16T07:45:43;91610.13;;;-5.62;84.94
83896;BME280;74045;42.812;74.638;2024-02-16T07:48:09;91590.50;;;-5.72;84.92
83896;BME280;74045;42.812;74.638;2024-02-16T07:50:34;91613.38;;;-5.70;84.94
83896;BME280;74045;42.812;74.638;2024-02-16T07:53:00;91362.28;;;-7.39;85.45
83896;BME280;74045;42.812;74.638;2024-02-16T07:55:26;91578.06;;;-5.92;84.65
83896;BME280;74045;42.812;74.638;2024-02-16T07:57:52;91604.63;;;-5.83;84.91
83896;BME280;74045;42.812;74.638;2024-02-16T08:00:18;91610.72;;;-5.79;85.62
83896;BME280;74045;42.812;74.638;2024-02-16T08:02:44;91516.50;;;-6.25;85.94
83896;BME280;74045;42.812;74.638;2024-02-16T08:05:11;91620.56;;;-5.45;85.82
83896;BME280;74045;42.812;74.638;2024-02-16T08:07:38;91608.25;;;-5.34;85.64
83896;BME280;74045;42.812;74.638;2024-02-16T08:10:04;91619.53;;;-5.21;85.74
83896;BME280;74045;42.812;74.638;2024-02-16T08:12:30;91614.97;;;-5.24;84.58
83896;BME280;74045;42.812;74.638;2024-02-16T08:14:57;91612.09;;;-5.45;83.75
83896;BME280;74045;42.812;74.638;2024-02-16T08:17:24;91559.91;;;-5.96;83.61
83896;BME280;74045;42.812;74.638;2024-02-16T08:19:53;91666.09;;;-5.68;83.95
83896;BME280;74045;42.812;74.638;2024-02-16T08:22:20;91639.03;;;-5.93;83.98
83896;BME280;74045;42.812;74.638;2024-02-16T08:24:45;91650.59;;;-6.04;83.54
83896;BME280;74045;42.812;74.638;2024-02-16T08:27:16;91650.50;;;-6.26;83.70
83896;BME280;74045;42.812;74.638;2024-02-16T08:29:42;91648.56;;;-6.35;84.33
83896;BME280;74045;42.812;74.638;2024-02-16T08:32:09;91661.09;;;-6.47;85.36
83896;BME280;74045;42.812;74.638;2024-02-16T08:34:35;91664.09;;;-6.40;85.04
83896;BME280;74045;42.812;74.638;2024-02-16T08:37:03;91666.56;;;-6.35;84.56
83896;BME280;74045;42.812;74.638;2024-02-16T08:39:29;91686.56;;;-6.32;85.38
83896;BME280;74045;42.812;74.638;2024-02-16T08:41:56;91699.34;;;-6.26;85.16
83896;BME280;74045;42.812;74.638;2024-02-16T08:44:22;91703.63;;;-6.36;84.74
83896;BME280;74045;42.812;74.638;2024-02-16T08:46:47;91719.34;;;-6.23;85.36
83896;BME280;74045;42.812;74.638;2024-02-16T08:49:15;91719.72;;;-6.16;85.58
83896;BME280;74045;42.812;74.638;2024-02-16T08:51:42;91719.16;;;-6.27;83.86
83896;BME280;74045;42.812;74.638;2024-02-16T08:54:08;91700.81;;;-6.39;84.92
83896;BME280;74045;42.812;74.638;2024-02-16T08:56:34;91696.63;;;-6.49;84.30
83896;BME280;74045;42.812;74.638;2024-02-16T08:59:01;91710.72;;;-6.46;84.85
83896;BME280;74045;42.812;74.638;2024-02-16T09:01:34;91711.00;;;-6.48;85.34
83896;BME280;74045;42.812;74.638;2024-02-16T09:04:00;91732.09;;;-6.32;86.12
83896;BME280;74045;42.812;74.638;2024-02-16T09:06:27;91644.59;;;-7.06;84.29
83896;BME280;74045;42.812;74.638;2024-02-16T09:08:54;91701.91;;;-6.59;84.62
83896;BME280;74045;42.812;74.638;2024-02-16T09:11:19;91723.13;;;-6.35;84.53
83896;BME280;74045;42.812;74.638;2024-02-16T09:13:45;91739.19;;;-6.43;83.01
83896;BME280;74045;42.812;74.638;2024-02-16T09:16:11;91726.81;;;-6.41;83.57
83896;BME280;74045;42.812;74.638;2024-02-16T09:18:37;91727.53;;;-6.54;82.88
83896;BME280;74045;42.812;74.638;2024-02-16T09:21:04;91757.84;;;-6.70;82.42
83896;BME280;74045;42.812;74.638;2024-02-16T09:23:32;91795.38;;;-7.12;82.25
83896;BME280;74045;42.812;74.638;2024-02-16T09:25:58;91769.41;;;-7.29;83.54
83896;BME280;74045;42.812;74.638;2024-02-16T09:28:28;91758.88;;;-7.28;83.73
83896;BME280;74045;42.812;74.638;2024-02-16T09:30:57;91783.16;;;-7.20;82.57
83896;BME280;74045;42.812;74.638;2024-02-16T09:33:23;91784.28;;;-7.50;82.72
83896;BME280;74045;42.812;74.638;2024-02-16T09:35:52;91779.91;;;-7.74;81.78
83896;BME280;74045;42.812;74.638;2024-02-16T09:38:18;91800.00;;;-7.81;82.58
83896;BME280;74045;42.812;74.638;2024-02-16T09:40:45;91795.22;;;-7.93;83.40
83896;BME280;74045;42.812;74.638;2024-02-16T09:43:26;91789.38;;;-7.98;83.28
83896;BME280;74045;42.812;74.638;2024-02-16T09:45:54;91789.66;;;-8.00;83.85
83896;BME280;74045;42.812;74.638;2024-02-16T09:48:20;91809.56;;;-7.86;83.70
83896;BME280;74045;42.812;74.638;2024-02-16T09:50:48;91832.72;;;-7.97;82.46
83896;BME280;74045;42.812;74.638;2024-02-16T09:53:16;91804.38;;;-8.11;83.22
83896;BME280;74045;42.812;74.638;2024-02-16T09:55:43;91823.94;;;-7.91;84.40
83896;BME280;74045;42.812;74.638;2024-02-16T09:58:08;91751.34;;;-8.39;83.05
83896;BME280;74045;42.812;74.638;2024-02-16T10:00:34;91844.44;;;-7.91;83.73
83896;BME280;74045;42.812;74.638;2024-02-16T10:03:00;91835.19;;;-7.86;84.06
83896;BME280;74045;42.812;74.638;2024-02-16T10:05:25;91718.84;;;-8.44;83.15
83896;BME280;74045;42.812;74.638;2024-02-16T10:07:52;91832.66;;;-7.92;82.04
83896;BME280;74045;42.812;74.638;2024-02-16T10:10:27;91843.13;;;-7.88;82.45
83896;BME280;74045;42.812;74.638;2024-02-16T10:13:05;91745.69;;;-8.70;82.69
83896;BME280;74045;42.812;74.638;2024-02-16T10:15:34;91764.94;;;-8.78;82.01
83896;BME280;74045;42.812;74.638;2024-02-16T10:18:02;91889.00;;;-8.16;82.99
83896;BME280;74045;42.812;74.638;2024-02-16T10:20:29;91888.53;;;-8.23;82.98
83896;BME280;74045;42.812;74.638;2024-02-16T10:23:10;91883.31;;;-8.42;82.25
83896;BME280;74045;42.812;74.638;2024-02-16T10:25:38;91897.47;;;-8.54;82.13
83896;BME280;74045;42.812;74.638;2024-02-16T10:28:09;91924.06;;;-8.45;82.98
83896;BME280;74045;42.812;74.638;2024-02-16T10:30:37;91897.19;;;-8.48;82.64
83896;BME280;74045;42.812;74.638;2024-02-16T10:33:07;91890.81;;;-8.56;81.76
83896;BME280;74045;42.812;74.638;2024-02-16T10:35:36;91924.06;;;-8.45;82.92
83896;BME280;74045;42.812;74.638;2024-02-16T10:38:07;91904.06;;;-8.43;82.53
83896;BME280;74045;42.812;74.638;2024-02-16T10:40:40;91921.41;;;-8.35;82.27
83896;BME280;74045;42.812;74.638;2024-02-16T10:43:06;91810.63;;;-8.95;82.71
83896;BME280;74045;42.812;74.638;2024-02-16T10:45:34;91922.09;;;-8.19;81.73
83896;BME280;74045;42.812;74.638;2024-02-16T10:48:01;91914.44;;;-8.29;81.63
83896;BME280;74045;42.812;74.638;2024-02-16T10:50:28;91923.41;;;-8.27;82.30
83896;BME280;74045;42.812;74.638;2024-02-16T10:52:55;91931.38;;;-8.28;81.63
83896;BME280;74045;42.812;74.638;2024-02-16T10:55:23;91949.00;;;-8.22;81.75
83896;BME280;74045;42.812;74.638;2024-02-16T10:57:50;91947.50;;;-8.28;80.82
83896;BME280;74045;42.812;74.638;2024-02-16T11:00:16;91955.44;;;-8.29;81.21
83896;BME280;74045;42.812;74.638;2024-02-16T11:02:55;91963.50;;;-8.41;80.74
83896;BME280;74045;42.812;74.638;2024-02-16T11:05:41;91946.97;;;-8.69;80.70
83896;BME280;74045;42.812;74.638;2024-02-16T11:08:18;91993.81;;;-8.59;81.51
83896;BME280;74045;42.812;74.638;2024-02-16T11:11:00;91973.53;;;-8.55;82.13
83896;BME280;74045;42.812;74.638;2024-02-16T11:13:33;91990.69;;;-8.50;81.58
83896;BME280;74045;42.812;74.638;2024-02-16T11:16:01;91894.69;;;-9.18;81.95
83896;BME280;74045;42.812;74.638;2024-02-16T11:18:29;91847.16;;;-9.39;81.34
83896;BME280;74045;42.812;74.638;2024-02-16T11:20:55;92002.00;;;-8.57;80.44
83896;BME280;74045;42.812;74.638;2024-02-16T11:23:31;92024.56;;;-8.69;80.41
83896;BME280;74045;42.812;74.638;2024-02-16T11:26:00;92014.38;;;-8.89;80.60
83896;BME280;74045;42.812;74.638;2024-02-16T11:28:30;92019.03;;;-9.07;81.19
83896;BME280;74045;42.812;74.638;2024-02-16T11:30:56;92021.09;;;-9.24;80.31
83896;BME280;74045;42.812;74.638;2024-02-16T11:33:22;91979.41;;;-9.81;80.23
83896;BME280;74045;42.812;74.638;2024-02-16T11:35:58;92039.00;;;-9.70;80.09
83896;BME280;74045;42.812;74.638;2024-02-16T11:38:25;92031.28;;;-10.01;79.80
83896;BME280;74045;42.812;74.638;2024-02-16T11:43:24;92070.56;;;-10.22;80.90
83896;BME280;74045;42.812;74.638;2024-02-16T11:45:51;92072.84;;;-10.26;81.86
83896;BME280;74045;42.812;74.638;2024-02-16T11:48:25;91949.81;;;-10.96;81.59
83896;BME280;74045;42.812;74.638;2024-02-16T11:51:02;92023.78;;;-10.43;81.40
83896;BME280;74045;42.812;74.638;2024-02-16T11:53:31;92084.41;;;-10.13;82.31
83896;BME280;74045;42.812;74.638;2024-02-16T11:56:00;91960.28;;;-10.92;82.48
83896;BME280;74045;42.812;74.638;2024-02-16T11:58:26;92109.47;;;-10.05;81.06
83896;BME280;74045;42.812;74.638;2024-02-16T12:00:52;92112.50;;;-10.18;81.24
83896;BME280;74045;42.812;74.638;2024-02-16T12:03:22;92117.63;;;-10.13;81.13
83896;BME280;74045;42.812;74.638;2024-02-16T12:08:17;92112.16;;;-10.47;79.99
83896;BME280;74045;42.812;74.638;2024-02-16T12:10:44;92124.25;;;-10.70;80.16
83896;BME280;74045;42.812;74.638;2024-02-16T12:13:09;92124.13;;;-10.90;80.10
83896;BME280;74045;42.812;74.638;2024-02-16T12:15:38;92124.28;;;-11.07;81.11
83896;BME280;74045;42.812;74.638;2024-02-16T12:18:04;92150.75;;;-11.13;81.83
83896;BME280;74045;42.812;74.638;2024-02-16T12:20:30;92141.97;;;-10.95;81.81
83896;BME280;74045;42.812;74.638;2024-02-16T12:22:59;92143.81;;;-10.86;81.62
83896;BME280;74045;42.812;74.638;2024-02-16T12:25:27;92079.06;;;-11.17;81.54
83896;BME280;74045;42.812;74.638;2024-02-16T12:27:53;92146.47;;;-10.70;81.43
83896;BME280;74045;42.812;74.638;2024-02-16T12:30:19;92165.41;;;-10.66;81.48
83896;BME280;74045;42.812;74.638;2024-02-16T12:32:44;91983.63;;;-12.01;81.24
83896;BME280;74045;42.812;74.638;2024-02-16T12:35:10;92182.16;;;-10.75;82.07
83896;BME280;74045;42.812;74.638;2024-02-16T12:37:36;92009.44;;;-11.92;80.92
83896;BME280;74045;42.812;74.638;2024-02-16T12:40:03;92033.41;;;-11.56;81.33
83896;BME280;74045;42.812;74.638;2024-02-16T12:42:31;92127.97;;;-10.88;81.66
83896;BME280;74045;42.812;74.638;2024-02-16T12:44:57;92180.25;;;-10.58;81.71
83896;BME280;74045;42.812;74.638;2024-02-16T12:47:23;92178.66;;;-10.69;80.60
83896;BME280;74045;42.812;74.638;2024-02-16T12:49:48;92179.66;;;-10.70;80.72
83896;BME280;74045;42.812;74.638;2024-02-16T12:52:19;92234.31;;;-10.66;80.71
83896;BME280;74045;42.812;74.638;2024-02-16T12:54:48;92125.16;;;-11.56;79.10